Aérodrome :
LOGIN :

S'inscrire | Disclaimer

   EN    FR    IT 

 










Légende :    VFR   VFR Marginal   IFR   IFR Intensif   IFR Très Intensif
Visi : 
Plafond : 
>= 8 km
>= 3000ft
5 à 8 km
1000 à 3000 ft
1500m à 5 km
500 à 1000 ft
800 à 1500m
200 à 500 ft
< 800m
< 200 ft
Symboles :   Orages  Brouillard  Fortes neiges  Fortes précipitations  Vent > 20 kt
SIGMETs :   Divers  Orages  Givrage  Turbulence  Onde Orograph.  Cendres Volcan.







- Altitude de l'aérodrome : 14 ft
- Code IATA : BRE


EDDW - Bremen Neuenland

DERNIER METAR :
  • 270250Z 24002KT 9999 MIFG NSC M02/M02 Q1014

METARs EXPIRÉS :
  • 270220Z 21003KT 9999 MIFG NSC M01/M02 Q1014
  • 270150Z 21002KT 9999 MIFG NSC M01/M02 Q1014
  • 270120Z 30003KT 250V310 9999 MIFG NSC 00/M01 Q1014
  • 270050Z 26002KT 9999 MIFG NSC M00/M01 Q1014
  • 270020Z 23004KT CAVOK M00/M01 Q1014

TAF TAF EDDW
Valide du 27 à 00h jusqu'au 28 à 00h UTC


262300Z 2700/2724 27003KT 9999 SCT040
BECMG 2707/2709 27009KT
BECMG 2717/2719 21006KT
Pas de NOTAMs connus pour ce terrain.



MET'MAP, la Météo Aéronautique d'un coup d'oeil ! - Copyright ORBIFLY Décembre 2007 - Disclaimer

ORBIFLY MET'MAP TEAM :

Programmation & Développement : Alexandra Zaïnal
Conception & Développement : Baudouin d'Aumeries
Co-Programmation & Développement : Marc-Olivier Méhu
Soutien technique & logistique : Manuel Goepfert

Contact : metmap@orbifly.com




SOURCES & CREDITS :

   NOAA